createdAt,value
2019-02-28T00:01:51.786Z,20.07
2019-02-28T00:03:58.046Z,22.57
2019-02-28T00:06:00.873Z,22.50
2019-02-28T00:08:04.568Z,17.03
2019-02-28T00:10:08.536Z,17.03
2019-02-28T00:12:13.644Z,23.87
2019-02-28T00:14:17.656Z,19.53
2019-02-28T00:16:21.311Z,23.37
2019-02-28T00:18:25.018Z,20.37
2019-02-28T00:20:29.149Z,19.57
2019-02-28T00:22:34.398Z,22.90
2019-02-28T00:24:38.092Z,20.10
2019-02-28T00:26:46.298Z,15.23
2019-02-28T00:28:47.198Z,14.83
2019-02-28T00:30:50.866Z,13.40
2019-02-28T00:32:56.417Z,15.47
2019-02-28T00:34:59.963Z,19.50
2019-02-28T00:37:03.636Z,16.43
2019-02-28T00:39:07.419Z,19.93
2019-02-28T00:41:11.087Z,15.87
2019-02-28T00:43:14.744Z,17.03
2019-02-28T00:45:18.431Z,22.97
2019-02-28T00:47:22.088Z,26.70
2019-02-28T00:49:25.861Z,28.50
2019-02-28T00:51:30.620Z,21.60
2019-02-28T00:53:37.416Z,23.17
2019-02-28T00:55:40.045Z,20.63
2019-02-28T00:57:43.726Z,19.37
2019-02-28T00:59:47.405Z,18.70
2019-02-28T01:01:51.079Z,18.83
2019-02-28T01:03:58.053Z,19.50
2019-02-28T01:06:00.139Z,17.97
2019-02-28T01:08:03.811Z,19.57
2019-02-28T01:10:10.454Z,18.30
2019-02-28T01:12:18.759Z,17.13
2019-02-28T01:14:19.511Z,20.30
2019-02-28T01:16:23.203Z,20.90
2019-02-28T01:18:26.852Z,18.37
2019-02-28T01:20:30.682Z,18.43
2019-02-28T01:22:34.342Z,23.63
2019-02-28T01:24:38.006Z,20.50
2019-02-28T01:26:43.313Z,19.80
2019-02-28T01:28:47.071Z,17.73
2019-02-28T01:30:50.761Z,19.57
2019-02-28T01:32:54.465Z,20.73
2019-02-28T01:34:58.182Z,19.90
2019-02-28T01:37:01.882Z,19.83
2019-02-28T01:39:07.005Z,19.63
2019-02-28T01:41:11.202Z,18.50
2019-02-28T01:43:15.629Z,17.27
2019-02-28T01:45:19.350Z,18.33
2019-02-28T01:47:23.034Z,19.00
2019-02-28T01:49:26.961Z,19.70
2019-02-28T01:51:35.746Z,20.53
2019-02-28T01:53:36.326Z,17.40
2019-02-28T01:55:39.990Z,19.30
2019-02-28T01:57:44.390Z,19.57
2019-02-28T01:59:48.119Z,20.43
2019-02-28T02:01:51.802Z,17.83
2019-02-28T02:03:55.465Z,17.73
2019-02-28T02:05:59.127Z,18.63
2019-02-28T02:08:06.525Z,16.20
2019-02-28T02:10:17.682Z,19.70
2019-02-28T02:12:20.685Z,19.13
2019-02-28T02:14:24.360Z,21.13
2019-02-28T02:16:28.019Z,20.60
2019-02-28T02:18:31.738Z,16.67
2019-02-28T02:20:35.452Z,18.70
2019-02-28T02:22:40.711Z,18.07
2019-02-28T02:24:44.560Z,20.20
2019-02-28T02:26:48.234Z,18.70
2019-02-28T02:28:51.933Z,18.60
2019-02-28T02:30:55.619Z,16.87
2019-02-28T02:32:59.333Z,18.60
2019-02-28T02:35:08.050Z,18.10
2019-02-28T02:37:08.367Z,19.90
2019-02-28T02:39:16.411Z,19.80
2019-02-28T02:41:17.455Z,21.33
2019-02-28T02:43:23.058Z,18.43
2019-02-28T02:45:26.885Z,20.87
2019-02-28T02:47:32.328Z,22.43
2019-02-28T02:49:35.949Z,19.47
2019-02-28T02:51:39.613Z,21.10
2019-02-28T02:53:43.564Z,18.27
2019-02-28T02:55:47.251Z,19.83
2019-02-28T02:57:51.914Z,16.33
2019-02-28T02:59:55.936Z,18.23
2019-02-28T03:01:59.612Z,16.57
2019-02-28T03:04:03.290Z,18.63
2019-02-28T03:06:12.231Z,19.07
2019-02-28T03:08:12.396Z,21.03
2019-02-28T03:10:18.066Z,22.17
2019-02-28T03:12:22.668Z,20.03
2019-02-28T03:14:26.407Z,18.33
2019-02-28T03:16:33.007Z,18.87
2019-02-28T03:18:35.454Z,19.47
2019-02-28T03:20:41.279Z,22.13
2019-02-28T03:22:44.540Z,19.07
2019-02-28T03:24:51.062Z,16.90
2019-02-28T03:26:53.697Z,18.20
2019-02-28T03:28:57.382Z,18.53
2019-02-28T03:31:11.972Z,15.83
2019-02-28T03:33:06.480Z,17.23
2019-02-28T03:35:10.192Z,21.80
2019-02-28T03:37:13.863Z,19.73
2019-02-28T03:39:24.063Z,16.93
2019-02-28T03:41:22.922Z,22.37
2019-02-28T03:43:26.679Z,17.70
2019-02-28T03:45:35.133Z,17.87
2019-02-28T03:47:35.771Z,16.60
2019-02-28T03:49:39.426Z,17.37
2019-02-28T03:51:43.105Z,18.50
2019-02-28T03:53:46.773Z,16.07
2019-02-28T03:55:50.571Z,17.50
2019-02-28T03:57:54.220Z,17.97
2019-02-28T03:59:57.896Z,16.03
2019-02-28T04:02:01.556Z,16.20
2019-02-28T04:04:10.880Z,16.83
2019-02-28T04:06:10.619Z,19.23
2019-02-28T04:08:14.281Z,14.70
2019-02-28T04:10:22.006Z,15.47
2019-02-28T04:12:23.359Z,19.60
2019-02-28T04:14:28.297Z,16.40
2019-02-28T04:16:32.439Z,20.67
2019-02-28T04:18:36.112Z,16.07
2019-02-28T04:20:39.802Z,16.23
2019-02-28T04:22:43.539Z,16.87
2019-02-28T04:24:47.732Z,18.00
2019-02-28T04:26:51.517Z,18.27
2019-02-28T04:28:55.228Z,17.53
2019-02-28T04:30:58.962Z,16.97
2019-02-28T04:33:02.861Z,14.87
2019-02-28T04:35:07.029Z,14.50
2019-02-28T04:37:10.887Z,15.57
2019-02-28T04:39:14.538Z,17.83
2019-02-28T04:41:18.212Z,16.93
2019-02-28T04:43:21.924Z,19.73
2019-02-28T04:45:26.200Z,19.57
2019-02-28T04:47:30.841Z,18.50
2019-02-28T04:49:34.491Z,18.33
2019-02-28T04:51:40.227Z,18.10
2019-02-28T04:53:43.558Z,17.47
2019-02-28T04:55:47.222Z,16.13
2019-02-28T04:57:51.621Z,16.13
2019-02-28T04:59:55.890Z,15.00
2019-02-28T05:01:59.547Z,18.47
2019-02-28T05:04:03.240Z,17.93
2019-02-28T05:06:06.881Z,17.53
2019-02-28T05:08:10.565Z,23.33
2019-02-28T05:10:14.227Z,13.43
2019-02-28T05:12:17.891Z,17.87
2019-02-28T05:14:23.716Z,21.97
2019-02-28T05:16:27.049Z,14.83
2019-02-28T05:18:30.752Z,16.43
2019-02-28T05:20:34.414Z,15.30
2019-02-28T05:22:38.079Z,16.50
2019-02-28T05:24:42.552Z,15.97
2019-02-28T05:26:47.316Z,18.53
2019-02-28T05:28:50.999Z,16.47
2019-02-28T05:30:54.672Z,15.70
2019-02-28T05:32:58.325Z,14.40
2019-02-28T05:35:01.998Z,15.10
2019-02-28T05:37:05.650Z,20.40
2019-02-28T05:39:09.352Z,15.87
2019-02-28T05:41:15.384Z,15.40
2019-02-28T05:43:18.397Z,17.90
2019-02-28T05:45:22.089Z,18.73
2019-02-28T05:47:26.143Z,16.77
2019-02-28T05:49:29.821Z,16.83
2019-02-28T05:51:33.474Z,16.40
2019-02-28T05:53:37.137Z,15.30
2019-02-28T05:55:40.839Z,17.43
2019-02-28T05:57:44.948Z,14.87
2019-02-28T05:59:48.770Z,19.17
2019-02-28T06:01:52.433Z,21.40
2019-02-28T06:03:56.120Z,27.70
2019-02-28T06:05:59.949Z,27.40
2019-02-28T06:08:04.273Z,23.67
2019-02-28T06:10:12.607Z,21.87
2019-02-28T06:12:16.278Z,21.70
2019-02-28T06:14:19.933Z,24.97
2019-02-28T06:16:23.619Z,21.20
2019-02-28T06:18:32.660Z,22.20
2019-02-28T06:20:32.749Z,20.37
2019-02-28T06:22:36.415Z,20.53
2019-02-28T06:24:40.085Z,20.10
2019-02-28T06:26:43.775Z,20.70
2019-02-28T06:28:47.467Z,20.93
2019-02-28T06:30:51.179Z,19.73
2019-02-28T06:32:57.635Z,17.63
2019-02-28T06:35:00.310Z,20.27
2019-02-28T06:37:04.517Z,17.10
2019-02-28T06:39:08.235Z,19.27
2019-02-28T06:41:11.920Z,20.17
2019-02-28T06:43:18.727Z,14.97
2019-02-28T06:45:21.225Z,20.83
2019-02-28T06:47:24.910Z,17.93
2019-02-28T06:49:28.570Z,16.17
2019-02-28T06:51:32.250Z,15.87
2019-02-28T06:53:37.314Z,14.90
2019-02-28T06:55:43.481Z,23.83
2019-02-28T06:57:47.955Z,20.30
2019-02-28T06:59:51.614Z,21.43
2019-02-28T07:01:57.545Z,17.10
2019-02-28T07:04:00.778Z,20.10
2019-02-28T07:06:04.440Z,22.33
2019-02-28T07:08:08.130Z,21.07
2019-02-28T07:10:14.158Z,22.33
2019-02-28T07:12:17.818Z,19.23
2019-02-28T07:14:21.502Z,29.30
2019-02-28T07:16:25.180Z,22.03
2019-02-28T07:18:28.859Z,27.63
2019-02-28T07:20:35.121Z,26.07
2019-02-28T07:22:39.969Z,23.43
2019-02-28T07:24:43.306Z,30.07
2019-02-28T07:26:48.299Z,32.57
2019-02-28T07:28:52.036Z,26.80
2019-02-28T07:30:55.686Z,32.90
2019-02-28T07:32:59.383Z,28.60
2019-02-28T07:35:03.144Z,39.27
2019-02-28T07:37:06.798Z,25.40
2019-02-28T07:39:10.507Z,21.20
2019-02-28T07:41:14.142Z,23.30
2019-02-28T07:43:17.814Z,29.90
2019-02-28T07:45:21.482Z,20.87
2019-02-28T07:47:25.480Z,36.37
2019-02-28T07:49:29.294Z,28.87
2019-02-28T07:51:32.966Z,24.07
2019-02-28T07:53:36.622Z,30.73
2019-02-28T07:55:40.310Z,25.43
2019-02-28T07:57:43.977Z,27.60
2019-02-28T07:59:47.675Z,23.47
2019-02-28T08:01:51.351Z,26.17
2019-02-28T08:03:55.018Z,25.73
2019-02-28T08:06:04.535Z,23.47
2019-02-28T08:08:04.110Z,22.90
2019-02-28T08:10:12.728Z,24.53
2019-02-28T08:12:16.145Z,23.00
2019-02-28T08:14:19.815Z,23.43
2019-02-28T08:16:23.496Z,23.37
2019-02-28T08:18:27.160Z,36.53
2019-02-28T08:20:33.843Z,27.13
2019-02-28T08:22:36.237Z,28.97
2019-02-28T08:24:39.915Z,21.67
2019-02-28T08:26:43.791Z,23.57
2019-02-28T08:28:47.533Z,28.63
2019-02-28T08:30:55.025Z,19.73
2019-02-28T08:32:56.611Z,28.03
2019-02-28T08:35:00.294Z,24.03
2019-02-28T08:37:03.982Z,26.80
2019-02-28T08:39:10.084Z,29.50
2019-02-28T08:41:15.241Z,23.00
2019-02-28T08:43:26.880Z,21.53
2019-02-28T08:45:24.336Z,18.37
2019-02-28T08:47:28.077Z,24.83
2019-02-28T08:49:31.817Z,29.97
2019-02-28T08:51:35.527Z,23.10
2019-02-28T08:53:39.226Z,24.10
2019-02-28T08:55:44.398Z,25.87
2019-02-28T08:57:54.775Z,26.83
2019-02-28T08:59:56.358Z,21.07
2019-02-28T09:01:59.185Z,21.53
2019-02-28T09:04:04.972Z,19.53
2019-02-28T09:06:08.261Z,16.93
2019-02-28T09:08:12.055Z,16.40
2019-02-28T09:10:20.326Z,20.00
2019-02-28T09:12:24.168Z,18.87
2019-02-28T09:14:27.835Z,16.30
2019-02-28T09:16:31.728Z,23.70
2019-02-28T09:18:35.493Z,20.83
2019-02-28T09:20:41.336Z,21.43
2019-02-28T09:22:44.896Z,19.87
2019-02-28T09:24:48.566Z,19.17
2019-02-28T09:26:52.242Z,18.57
2019-02-28T09:28:55.927Z,24.43
2019-02-28T09:31:01.440Z,20.37
2019-02-28T09:33:05.201Z,19.70
2019-02-28T09:35:13.804Z,21.50
2019-02-28T09:37:14.406Z,21.43
2019-02-28T09:39:19.403Z,24.10
2019-02-28T09:41:23.455Z,20.77
2019-02-28T09:43:27.310Z,22.60
2019-02-28T09:45:32.133Z,25.23
2019-02-28T09:47:35.973Z,27.17
2019-02-28T09:49:39.646Z,24.00
2019-02-28T09:51:43.326Z,40.40
2019-02-28T09:53:47.247Z,21.87
2019-02-28T09:55:52.505Z,28.37
2019-02-28T09:57:57.542Z,26.77
2019-02-28T10:00:01.367Z,28.77
2019-02-28T10:02:08.370Z,26.50
2019-02-28T10:04:10.494Z,23.67
2019-02-28T10:06:16.459Z,20.23
2019-02-28T10:08:21.657Z,25.80
2019-02-28T10:10:33.117Z,23.90
2019-02-28T10:12:39.426Z,22.70
2019-02-28T10:14:42.241Z,22.63
2019-02-28T10:16:45.916Z,22.90
2019-02-28T10:18:49.562Z,25.77
2019-02-28T10:20:53.426Z,22.63
2019-02-28T10:22:57.126Z,22.53
2019-02-28T10:25:03.568Z,21.60
2019-02-28T10:27:06.194Z,19.63
2019-02-28T10:29:09.971Z,19.60
2019-02-28T10:31:13.647Z,20.93
2019-02-28T10:33:18.062Z,18.33
2019-02-28T10:35:21.890Z,17.27
2019-02-28T10:37:25.571Z,19.70
2019-02-28T10:39:29.281Z,17.53
2019-02-28T10:41:33.067Z,18.43
2019-02-28T10:43:36.789Z,26.00
2019-02-28T10:45:42.066Z,19.90
2019-02-28T10:47:45.907Z,23.80
2019-02-28T10:49:49.570Z,20.00
2019-02-28T10:51:53.289Z,19.80
2019-02-28T10:53:56.965Z,19.27
2019-02-28T10:56:00.708Z,18.30
2019-02-28T10:58:04.762Z,19.47
2019-02-28T11:00:14.255Z,26.70
2019-02-28T11:02:19.765Z,23.33
2019-02-28T11:04:23.703Z,20.50
2019-02-28T11:06:28.252Z,20.63
2019-02-28T11:08:32.630Z,19.33
2019-02-28T11:10:38.971Z,22.70
2019-02-28T11:12:42.686Z,19.77
2019-02-28T11:14:46.364Z,20.37
2019-02-28T11:16:50.047Z,19.67
2019-02-28T11:18:54.623Z,21.37
2019-02-28T11:20:59.285Z,20.73
2019-02-28T11:23:03.558Z,19.50
2019-02-28T11:25:10.295Z,22.53
2019-02-28T11:27:16.103Z,23.17
2019-02-28T11:29:19.383Z,25.17
2019-02-28T11:31:23.048Z,19.83
2019-02-28T11:33:26.786Z,19.90
2019-02-28T11:35:30.653Z,22.53
2019-02-28T11:37:34.466Z,22.93
2019-02-28T11:39:38.126Z,20.73
2019-02-28T11:41:41.794Z,19.27
2019-02-28T11:43:45.483Z,22.03
2019-02-28T11:45:49.147Z,20.70
2019-02-28T11:47:54.144Z,21.23
2019-02-28T11:50:00.344Z,20.10
2019-02-28T11:52:03.190Z,21.20
2019-02-28T11:54:06.959Z,21.23
2019-02-28T11:56:10.623Z,19.77
2019-02-28T11:58:17.787Z,24.87
2019-02-28T12:00:28.587Z,23.80
2019-02-28T12:02:32.253Z,21.37
2019-02-28T12:04:37.409Z,20.87
2019-02-28T12:06:41.335Z,23.10
2019-02-28T12:08:45.771Z,23.10
2019-02-28T12:10:49.566Z,20.20
2019-02-28T12:12:53.240Z,23.47
2019-02-28T12:14:56.946Z,24.90
2019-02-28T12:17:00.673Z,23.17
2019-02-28T12:19:04.470Z,22.67
2019-02-28T12:21:08.135Z,21.63
2019-02-28T12:23:11.921Z,20.27
2019-02-28T12:25:18.308Z,20.53
2019-02-28T12:27:24.375Z,22.70
2019-02-28T12:29:27.398Z,24.90
2019-02-28T12:31:32.060Z,25.23
2019-02-28T12:33:36.607Z,20.60
2019-02-28T12:35:40.780Z,20.77
2019-02-28T12:37:44.519Z,22.13
2019-02-28T12:39:48.212Z,24.70
2019-02-28T12:41:51.869Z,23.00
2019-02-28T12:43:57.115Z,19.77
2019-02-28T12:46:00.866Z,19.63
2019-02-28T12:48:04.759Z,21.27
2019-02-28T12:50:11.449Z,21.63
2019-02-28T12:52:15.555Z,24.27
2019-02-28T12:54:19.294Z,20.57
2019-02-28T12:56:22.986Z,20.90
2019-02-28T12:58:36.451Z,19.60
2019-02-28T13:00:42.765Z,24.57
2019-02-28T13:02:47.143Z,20.20
2019-02-28T13:04:51.106Z,17.77
2019-02-28T13:06:55.510Z,22.07
2019-02-28T13:09:00.174Z,19.60
2019-02-28T13:11:04.721Z,23.77
2019-02-28T13:13:08.427Z,21.90
2019-02-28T13:15:14.576Z,20.73
2019-02-28T13:17:18.277Z,22.17
2019-02-28T13:19:21.967Z,18.57
2019-02-28T13:21:25.672Z,19.63
2019-02-28T13:23:32.825Z,21.20
2019-02-28T13:25:34.733Z,21.73
2019-02-28T13:27:41.577Z,17.80
2019-02-28T13:29:43.944Z,22.77
2019-02-28T13:31:47.650Z,16.63
2019-02-28T13:33:52.532Z,18.17
2019-02-28T13:35:56.805Z,21.23
2019-02-28T13:38:00.522Z,23.70
2019-02-28T13:40:08.590Z,24.40
2019-02-28T13:42:11.689Z,19.23
2019-02-28T13:44:15.362Z,17.03
2019-02-28T13:46:19.113Z,14.90
2019-02-28T13:48:26.191Z,19.73
2019-02-28T13:50:32.901Z,18.03
2019-02-28T13:52:36.760Z,19.77
2019-02-28T13:54:42.054Z,16.80
2019-02-28T13:56:45.865Z,14.33
2019-02-28T13:58:49.563Z,16.27
2019-02-28T14:00:53.223Z,17.50
2019-02-28T14:02:58.623Z,15.47
2019-02-28T14:05:03.035Z,18.20
2019-02-28T14:07:07.997Z,15.23
2019-02-28T14:09:11.760Z,17.70
2019-02-28T14:11:15.424Z,14.43
2019-02-28T14:13:19.176Z,16.47
2019-02-28T14:15:25.841Z,14.47
2019-02-28T14:17:29.580Z,15.67
2019-02-28T14:19:33.385Z,14.50
2019-02-28T14:21:37.778Z,13.80
2019-02-28T14:23:41.732Z,14.23
2019-02-28T14:25:45.409Z,18.53
2019-02-28T14:27:49.072Z,14.10
2019-02-28T14:29:52.771Z,17.27
2019-02-28T14:31:56.424Z,12.97
2019-02-28T14:34:00.103Z,18.27
2019-02-28T14:36:03.787Z,18.77
2019-02-28T14:38:07.450Z,14.60
2019-02-28T14:40:17.985Z,12.13
2019-02-28T14:42:21.406Z,12.60
2019-02-28T14:44:28.006Z,11.40
2019-02-28T14:46:30.481Z,11.33
2019-02-28T14:48:36.646Z,16.33
2019-02-28T14:50:39.611Z,13.50
2019-02-28T14:52:43.279Z,14.50
2019-02-28T14:54:46.971Z,17.57
2019-02-28T14:56:50.639Z,17.27
2019-02-28T14:58:57.385Z,13.67
2019-02-28T15:00:59.729Z,21.03
2019-02-28T15:03:03.932Z,10.97
2019-02-28T15:05:10.280Z,14.47
2019-02-28T15:07:13.945Z,12.07
2019-02-28T15:09:17.665Z,11.73
2019-02-28T15:11:21.379Z,12.17
2019-02-28T15:13:25.051Z,10.80
2019-02-28T15:15:28.754Z,11.00
2019-02-28T15:17:32.545Z,12.97
2019-02-28T15:19:36.215Z,12.90
2019-02-28T15:21:42.677Z,14.87
2019-02-28T15:23:45.359Z,11.90
2019-02-28T15:25:50.803Z,14.33
2019-02-28T15:27:54.503Z,15.33
2019-02-28T15:29:58.873Z,12.77
2019-02-28T15:32:03.532Z,12.73
2019-02-28T15:34:07.202Z,15.40
2019-02-28T15:36:10.883Z,13.30
2019-02-28T15:38:14.555Z,13.40
2019-02-28T15:40:28.796Z,12.60
2019-02-28T15:42:32.486Z,10.43
2019-02-28T15:44:36.154Z,12.67
2019-02-28T15:46:39.839Z,14.63
2019-02-28T15:48:43.510Z,19.80
2019-02-28T15:50:51.212Z,13.27
2019-02-28T15:52:52.603Z,14.13
2019-02-28T15:54:57.729Z,15.40
2019-02-28T15:57:01.848Z,13.90
2019-02-28T15:59:05.519Z,12.03
2019-02-28T16:01:09.183Z,15.83
2019-02-28T16:03:13.509Z,17.73
2019-02-28T16:05:18.367Z,15.17
2019-02-28T16:07:22.046Z,16.27
2019-02-28T16:09:25.720Z,19.07
2019-02-28T16:11:29.407Z,14.93
2019-02-28T16:13:33.114Z,13.33
2019-02-28T16:15:36.785Z,17.60
2019-02-28T16:17:40.571Z,16.93
2019-02-28T16:19:44.238Z,13.03
2019-02-28T16:21:47.978Z,13.00
2019-02-28T16:23:51.652Z,15.90
2019-02-28T16:25:55.391Z,15.10
2019-02-28T16:27:59.066Z,13.27
2019-02-28T16:30:03.047Z,14.23
2019-02-28T16:32:06.707Z,13.20
2019-02-28T16:34:10.407Z,18.90
2019-02-28T16:36:15.857Z,13.77
2019-02-28T16:38:19.479Z,13.10
2019-02-28T16:40:27.210Z,13.80
2019-02-28T16:42:30.943Z,15.80
2019-02-28T16:44:34.650Z,15.03
2019-02-28T16:46:38.315Z,15.00
2019-02-28T16:48:42.090Z,14.67
2019-02-28T16:50:45.815Z,13.43
2019-02-28T16:52:49.484Z,16.33
2019-02-28T16:54:53.391Z,14.10
2019-02-28T16:56:58.702Z,18.27
2019-02-28T16:59:02.355Z,18.27
2019-02-28T17:01:06.130Z,15.37
2019-02-28T17:03:09.812Z,13.40
2019-02-28T17:05:13.764Z,15.77
2019-02-28T17:07:17.422Z,24.57
2019-02-28T17:09:22.687Z,12.90
2019-02-28T17:11:26.383Z,17.13
2019-02-28T17:13:38.856Z,14.00
2019-02-28T17:16:01.430Z,12.80
2019-02-28T17:18:06.101Z,16.10
2019-02-28T17:20:09.786Z,15.33
2019-02-28T17:22:13.459Z,22.83
2019-02-28T17:24:17.115Z,34.17
2019-02-28T17:26:22.364Z,13.27
2019-02-28T17:28:39.792Z,15.23
2019-02-28T17:31:01.294Z,17.87
2019-02-28T17:33:05.783Z,20.83
2019-02-28T17:35:10.767Z,21.93
2019-02-28T17:37:14.500Z,19.97
2019-02-28T17:39:18.179Z,22.23
2019-02-28T17:41:21.872Z,20.33
2019-02-28T17:43:25.555Z,23.23
2019-02-28T17:45:29.355Z,19.30
2019-02-28T17:47:51.056Z,28.97
2019-02-28T17:50:05.689Z,25.70
2019-02-28T17:52:17.722Z,20.20
2019-02-28T17:54:40.555Z,21.50
2019-02-28T17:56:52.848Z,22.40
2019-02-28T17:59:25.473Z,28.60
2019-02-28T18:01:44.260Z,23.57
2019-02-28T18:03:53.921Z,23.20
2019-02-28T18:06:00.522Z,20.83
2019-02-28T18:08:15.862Z,22.67
2019-02-28T18:10:31.335Z,25.30
2019-02-28T18:12:52.219Z,32.07
2019-02-28T18:15:13.641Z,25.23
2019-02-28T18:17:51.617Z,23.07
2019-02-28T18:20:16.035Z,33.30
2019-02-28T18:22:22.638Z,25.13
2019-02-28T18:24:47.130Z,27.43
2019-02-28T18:27:12.344Z,26.27
2019-02-28T18:29:32.251Z,23.93
2019-02-28T18:31:35.986Z,24.23
2019-02-28T18:33:52.300Z,26.90
2019-02-28T18:35:56.024Z,25.93
2019-02-28T18:38:00.790Z,28.10
2019-02-28T18:40:07.212Z,21.23
2019-02-28T18:42:10.884Z,27.40
2019-02-28T18:44:14.766Z,27.43
2019-02-28T18:46:18.455Z,23.87
2019-02-28T18:48:22.103Z,30.43
2019-02-28T18:50:25.779Z,22.90
2019-02-28T18:52:29.562Z,28.60
2019-02-28T18:54:33.235Z,24.93
2019-02-28T18:56:36.894Z,24.70
2019-02-28T18:58:40.634Z,22.33
2019-02-28T19:00:44.312Z,26.37
2019-02-28T19:02:47.999Z,25.03
2019-02-28T19:04:51.697Z,19.30
2019-02-28T19:09:20.060Z,23.43
2019-02-28T19:11:23.761Z,19.07
2019-02-28T19:13:27.533Z,22.33
2019-02-28T19:15:31.367Z,21.37
2019-02-28T19:17:35.028Z,26.43
2019-02-28T19:19:38.699Z,20.57
2019-02-28T19:21:42.506Z,21.20
2019-02-28T19:23:46.178Z,21.87
2019-02-28T19:25:49.871Z,22.27
2019-02-28T19:27:53.540Z,18.97
2019-02-28T19:29:57.206Z,20.50
2019-02-28T19:32:00.938Z,19.77
2019-02-28T19:34:04.646Z,20.33
2019-02-28T19:36:08.353Z,19.80
2019-02-28T19:38:12.051Z,20.20
2019-02-28T19:40:15.781Z,21.90
2019-02-28T19:42:19.474Z,23.67
2019-02-28T19:44:23.171Z,21.70
2019-02-28T19:46:26.856Z,22.97
2019-02-28T19:48:30.553Z,22.33
2019-02-28T19:50:34.231Z,20.67
2019-02-28T19:52:37.911Z,27.27
2019-02-28T19:54:41.578Z,22.07
2019-02-28T19:56:45.255Z,21.83
2019-02-28T19:58:48.954Z,26.33
2019-02-28T20:00:52.643Z,35.63
2019-02-28T20:02:56.364Z,25.33
2019-02-28T20:05:00.040Z,38.00
2019-02-28T20:07:03.984Z,30.90
2019-02-28T20:09:08.694Z,27.90
2019-02-28T20:11:12.475Z,20.63
2019-02-28T20:13:16.194Z,19.23
2019-02-28T20:15:22.916Z,21.43
2019-02-28T20:17:26.604Z,52.97
2019-02-28T20:19:30.322Z,20.27
2019-02-28T20:21:33.987Z,24.43
2019-02-28T20:23:37.806Z,40.30
2019-02-28T20:25:41.474Z,20.83
2019-02-28T20:27:45.144Z,19.07
2019-02-28T20:29:55.106Z,13.20
2019-02-28T20:31:54.259Z,19.83
2019-02-28T20:33:57.947Z,20.77
2019-02-28T20:36:01.614Z,16.77
2019-02-28T20:38:05.295Z,16.63
2019-02-28T20:40:11.554Z,14.73
2019-02-28T20:42:15.234Z,17.03
2019-02-28T20:44:18.942Z,13.80
2019-02-28T20:46:22.615Z,13.23
2019-02-28T20:48:26.361Z,17.10
2019-02-28T20:50:35.141Z,17.07
2019-02-28T20:52:38.802Z,17.90
2019-02-28T20:54:42.518Z,13.17
2019-02-28T20:56:46.178Z,17.60
2019-02-28T20:58:50.166Z,20.63
2019-02-28T21:00:53.896Z,14.30
2019-02-28T21:02:57.578Z,13.07
2019-02-28T21:05:01.290Z,16.40
2019-02-28T21:07:04.998Z,20.00
2019-02-28T21:09:08.776Z,13.00
2019-02-28T21:11:12.438Z,11.80
2019-02-28T21:13:16.125Z,15.37
2019-02-28T21:15:19.819Z,14.90
2019-02-28T21:17:29.461Z,13.03
2019-02-28T21:19:31.619Z,13.70
2019-02-28T21:21:35.410Z,11.33
2019-02-28T21:23:39.148Z,15.37
2019-02-28T21:25:43.002Z,12.20
2019-02-28T21:27:46.668Z,12.57
2019-02-28T21:29:50.368Z,15.07
2019-02-28T21:31:54.088Z,12.27
2019-02-28T21:33:57.737Z,13.43
2019-02-28T21:36:01.423Z,12.33
2019-02-28T21:38:05.139Z,10.83
2019-02-28T21:40:11.495Z,12.57
2019-02-28T21:42:15.195Z,11.70
2019-02-28T21:44:18.923Z,13.77
2019-02-28T21:46:22.615Z,13.73
2019-02-28T21:48:26.295Z,12.00
2019-02-28T21:50:29.946Z,9.53
2019-02-28T21:52:33.634Z,13.77
2019-02-28T21:54:37.303Z,14.40
2019-02-28T21:56:41.003Z,15.93
2019-02-28T21:58:44.752Z,12.40
2019-02-28T22:00:48.416Z,13.33
2019-02-28T22:02:52.254Z,10.23
2019-02-28T22:04:55.993Z,19.53
2019-02-28T22:06:59.700Z,26.50
2019-02-28T22:09:04.706Z,26.70
2019-02-28T22:11:08.430Z,23.43
2019-02-28T22:13:12.132Z,23.67
2019-02-28T22:15:23.536Z,18.00
2019-02-28T22:17:27.226Z,12.03
2019-02-28T22:19:30.882Z,13.57
2019-02-28T22:21:34.554Z,11.43
2019-02-28T22:23:38.262Z,9.33
2019-02-28T22:25:41.920Z,16.07
2019-02-28T22:27:45.610Z,20.17
2019-02-28T22:29:49.272Z,14.13
2019-02-28T22:31:54.512Z,10.67
2019-02-28T22:33:59.781Z,16.70
2019-02-28T22:36:05.043Z,10.67
2019-02-28T22:38:08.743Z,13.73
2019-02-28T22:40:12.416Z,13.40
2019-02-28T22:42:22.181Z,16.73
2019-02-28T22:44:21.499Z,18.63
2019-02-28T22:46:25.178Z,17.10
2019-02-28T22:48:28.876Z,18.03
2019-02-28T22:50:32.555Z,17.80
2019-02-28T22:52:36.207Z,14.60
2019-02-28T22:54:39.923Z,11.33
2019-02-28T22:56:43.604Z,13.43
2019-02-28T22:58:47.294Z,15.33
2019-02-28T23:01:01.231Z,15.23
2019-02-28T23:03:05.987Z,16.03
2019-02-28T23:05:09.870Z,14.80
2019-02-28T23:07:13.543Z,9.43
2019-02-28T23:09:17.226Z,6.47
2019-02-28T23:11:20.891Z,11.50
2019-02-28T23:13:24.592Z,14.13
2019-02-28T23:15:28.287Z,7.00
2019-02-28T23:17:31.952Z,14.23
2019-02-28T23:19:35.741Z,11.83
2019-02-28T23:21:39.417Z,13.70
2019-02-28T23:23:43.075Z,6.70
2019-02-28T23:25:46.771Z,13.03
2019-02-28T23:27:50.433Z,13.27
2019-02-28T23:29:57.090Z,10.33
2019-02-28T23:32:15.318Z,9.80
2019-02-28T23:34:27.407Z,6.73
2019-02-28T23:36:31.093Z,11.83
2019-02-28T23:38:34.772Z,10.70
2019-02-28T23:40:38.558Z,7.37
2019-02-28T23:42:42.224Z,8.27
2019-02-28T23:44:45.882Z,7.27
2019-02-28T23:46:49.768Z,10.90
2019-02-28T23:48:53.423Z,8.73
2019-02-28T23:50:57.214Z,11.37
2019-02-28T23:53:00.897Z,6.53
2019-02-28T23:55:06.831Z,7.37
2019-02-28T23:57:10.523Z,8.20
2019-02-28T23:59:14.251Z,7.17
